KGCY/GCY METAR and TAF weather

Enter ICAO airport designator
Station Type Date Time Source
KGCY METAR 2021/09/25 13:10 UTC NOAA

KGCY 251310Z AUTO 00000KT 10SM CLR 11/09 A3015 RMK A01


Station Type Date Time Source
KGCY Decoded METAR 2021/09/25 13:10 UTC NOAA

Station name not available
Sep 25, 2021 - 09:10 AM EDT / 2021.09.25 1310 UTC
Wind: Calm:0
Visibility: 10 mile(s):0
Sky conditions: clear
Temperature: 51 F (11 C)
Dew Point: 48 F (9 C)
Relative Humidity: 87%
Pressure (altimeter): 30.15 in. Hg (1020 hPa)
ob: KGCY 251310Z AUTO 00000KT 10SM CLR 11/09 A3015 RMK A01
cycle: 13

Station Type Date Time Source
KGCY TAF UTC NOAA

Error!

Example: see airport list